Sunday, October 21, 2018, 12:41 PM EDT
Back to Local

KLNS, Lancaster Airport

Location: Lititz, PA, United States Lat: 40.117
Local Time: 12:41 PM EDT (16:41 GMT) Lon: -76.3
Time Zone: US/Eastern Elev: 403 ft

Show me the last for .
Show Decoded

2018-10-21 11:53 METAR KLNS 211553Z 33019G29KT 10SM BKN050 08/M01 A3007 RMK AO2 PK WND 33029/1552
                 SLP183 T00831011 =
2018-10-21 10:53 METAR KLNS 211453Z 31017G27KT 10SM BKN047 07/M01 A3006 RMK AO2 PK WND 32030/1411
                 SLP180 T00721011 51029 =
2018-10-21 09:53 METAR KLNS 211353Z 32018G27KT 10SM SCT045 07/M01 A3005 RMK AO2 PK WND 32028/1316
                 SLP177 T00721006 =
2018-10-21 08:53 METAR KLNS 211253Z 33015G22KT 10SM BKN041 06/01 A3002 RMK AO2 SLP166 T00610006 =
2018-10-21 07:53 METAR KLNS 211153Z 32010KT 10SM CLR 06/02 A2997 RMK AO2 SLP149 60004 70016
                 T00560017 10089 20056 51061 =
2018-10-21 06:53 METAR KLNS 211053Z 33014G23KT 10SM OVC070 06/03 A2992 RMK AO2 PK WND 32026/1022
                 RAE12B31E42 SLP132 P0000 T00610033 =
2018-10-21 06:16 METAR KLNS 211016Z 32020G26KT 10SM SCT019 BKN033 OVC065 07/04 A2987 RMK AO2 PK
                 WND 33026/1016 RAE12 PRESRR P0000 T00670044 =
2018-10-21 05:53 METAR KLNS 210953Z COR 31019G29KT 5SM RA BR FEW015 BKN022 OVC045 07/05 A2985 RMK
                 AO2 PK WND 30029/0946 RAE09B40 PRESRR SLP108 P0003 T00720050 =
2018-10-21 04:53 METAR KLNS 210853Z AUTO 31013KT 7SM -RA BKN037 OVC044 08/05 A2979 RMK AO2
                 RAE09B45 SLP087 P0001 60001 T00780050 53027 =
2018-10-21 03:53 METAR KLNS 210753Z AUTO 32015G20KT 10SM -RA OVC034 08/04 A2974 RMK AO2 RAB48
                 SLP072 P0000 T00830044 =
2018-10-21 02:53 METAR KLNS 210653Z AUTO 30009KT 10SM OVC036 09/05 A2973 RMK AO2 SLP066 T00890050
                 =
2018-10-21 01:53 METAR KLNS 210553Z AUTO 29009KT 10SM CLR 09/06 A2971 RMK AO2 SLP059 60012
                 T00890056 10139 20083 58002 =
2018-10-21 00:53 METAR KLNS 210453Z AUTO 27008KT 10SM CLR 08/07 A2971 RMK AO2 SLP059 T00830072
                 401830083 =
2018-10-20 23:53 METAR KLNS 210353Z AUTO 26008KT 10SM CLR 09/08 A2971 RMK AO2 SLP061 T00890078 =
2018-10-20 22:53 METAR KLNS 210253Z 27005KT 10SM OVC100 09/07 A2971 RMK AO2 RAE15 SLP061 P0001
                 60012 T00890072 53025 =
2018-10-20 21:53 METAR KLNS 210153Z 32015G30KT 6SM RA BR OVC044 09/07 A2971 RMK AO2 PK WND
                 28038/0137 RAB31 SLP059 P0011 T00940072 =
2018-10-20 20:53 METAR KLNS 210053Z 27006KT 10SM SCT110 12/07 A2964 RMK AO2 SLP036 T01170067 =
2018-10-20 19:53 METAR KLNS 202353Z 28005KT 10SM OVC110 12/07 A2964 RMK AO2 SLP035 T01170072
                 10178 20111 55002 =
2018-10-20 18:53 METAR KLNS 202253Z 25007KT 10SM CLR 13/07 A2963 RMK AO2 SLP033 T01330067 =
2018-10-20 17:53 METAR KLNS 202153Z 28010KT 10SM BKN090 16/07 A2963 RMK AO2 SLP034 T01560072 =
2018-10-20 16:53 METAR KLNS 202053Z 27012KT 10SM SCT080 16/07 A2964 RMK AO2 SLP037 T01610067
                 56022 =
2018-10-20 15:53 METAR KLNS 201953Z 31010KT 10SM SCT055 SCT070 17/08 A2966 RMK AO2 SLP042
                 T01720083 =
2018-10-20 14:53 METAR KLNS 201853Z 28011G19KT 10SM BKN075 17/08 A2968 RMK AO2 SLP051 T01670083 =
2018-10-20 13:53 METAR KLNS 201753Z 31015KT 10SM FEW043 BKN065 17/09 A2971 RMK AO2 SLP059
                 T01720089 10183 20122 58023 =
2018-10-20 12:53 METAR KLNS 201653Z 29015G20KT 10SM BKN036 BKN045 18/11 A2974 RMK AO2 SLP069
                 T01780106 =

Support USWX by starting your Amazon purchase here.